Airfield :
LOGIN :

Register | Disclaimer

   EN    FR    IT 

 










Legend :    VFR   Marginal VFR   IFR   Intensive IFR   Very Intensive IFR
Visi :
Ceiling :
>= 8 km
>= 3000ft
5 to 8 km
1000 to 3000 ft
1500m to 5 km
500 to 1000 ft
800 to 1500m
200 to 500 ft
< 800m
< 200 ft
Symbols :   Thunderstorms  Fog  Heavy snow  Heavy precipitations  Wind > 20 kt
SIGMETs :     Misc.  Thunderstorms  Icing  Turbulence  Mountain Waves  Volcanic Ashes







- Airport Elevation : 20 ft


EBFN - Koksijde

CURRENT METAR :
  • 112225Z AUTO 10003KT 2800 BR BKN042/// 01/00 Q1025 YLO

EXPIRED METARs :
  • 112155Z AUTO VRB02KT 3300 BR BKN043/// 01/00 Q1025 YLO
  • 112125Z AUTO VRB02KT 2800 BR BKN044/// 01/00 Q1025 YLO
  • 112055Z AUTO VRB01KT 2900 BR BKN044/// 01/00 Q1025 YLO
  • 112025Z AUTO VRB01KT 3200 BR BKN044/// 01/00 Q1025 YLO
  • 112022Z AUTO VRB01KT 3500 BR BKN043/// 01/00 Q1025 YLO
  • 111955Z AUTO VRB01KT 4500 BR FEW043/// 02/01 Q1025 GRN

TAF TAF EBFN
Valid from the 11 at 19:00 until the 12 at 07:00 UTC


111500Z 1119/1207 20005KT 9999 SCT030
TEMPO 1119/1207 VRB03KT FEW030
PROB30
TEMPO 1201/1207 15005KT 3000 BR
No reported NOTAMs for that airfield.



MET'MAP, your aeronautical weather chart ! - Copyright ORBIFLY December 2007 - Disclaimer

ORBIFLY MET'MAP TEAM :

Programming & Development : Alexandra Zaïnal
Concept & Development : Baudouin d'Aumeries
Co-Development & Prog : Marc-Olivier Méhu
Technical & hardware support : Manuel Goepfert

Contact : metmap@orbifly.com




SOURCES & CREDITS :

   NOAA